sensor_id;sensor_type;location;lat;lon;timestamp;pressure;altitude;pressure_sealevel;temperature;humidity
17821;BME280;9035;42.554;23.188;2022-10-16T00:01:49;90547.31;;;9.78;65.98
17821;BME280;9035;42.554;23.188;2022-10-16T00:04:16;90544.47;;;9.41;67.51
17821;BME280;9035;42.554;23.188;2022-10-16T00:06:43;90537.97;;;9.43;67.89
17821;BME280;9035;42.554;23.188;2022-10-16T00:09:10;90519.38;;;9.41;67.29
17821;BME280;9035;42.554;23.188;2022-10-16T00:11:38;90552.59;;;9.56;67.67
17821;BME280;9035;42.554;23.188;2022-10-16T00:14:08;90550.91;;;9.43;67.47
17821;BME280;9035;42.554;23.188;2022-10-16T00:16:36;90536.28;;;9.39;67.66
17821;BME280;9035;42.554;23.188;2022-10-16T00:19:03;90552.44;;;9.53;67.54
17821;BME280;9035;42.554;23.188;2022-10-16T00:21:31;90557.31;;;9.54;67.06
17821;BME280;9035;42.554;23.188;2022-10-16T00:23:59;90556.25;;;9.47;67.58
17821;BME280;9035;42.554;23.188;2022-10-16T00:26:28;90561.78;;;9.23;68.79
17821;BME280;9035;42.554;23.188;2022-10-16T00:28:55;90557.41;;;9.32;68.56
17821;BME280;9035;42.554;23.188;2022-10-16T00:31:24;90559.81;;;8.90;69.43
17821;BME280;9035;42.554;23.188;2022-10-16T00:33:51;90556.78;;;8.96;69.90
17821;BME280;9035;42.554;23.188;2022-10-16T00:36:20;90555.63;;;9.02;69.86
17821;BME280;9035;42.554;23.188;2022-10-16T00:38:49;90565.81;;;9.07;69.68
17821;BME280;9035;42.554;23.188;2022-10-16T00:41:18;90575.44;;;9.15;69.40
17821;BME280;9035;42.554;23.188;2022-10-16T00:43:47;90567.59;;;9.29;69.23
17821;BME280;9035;42.554;23.188;2022-10-16T00:46:17;90557.66;;;9.22;68.91
17821;BME280;9035;42.554;23.188;2022-10-16T00:48:50;90552.56;;;9.09;69.52
17821;BME280;9035;42.554;23.188;2022-10-16T00:51:19;90552.88;;;9.07;69.63
17821;BME280;9035;42.554;23.188;2022-10-16T00:53:48;90553.81;;;9.11;69.10
17821;BME280;9035;42.554;23.188;2022-10-16T00:56:16;90548.03;;;9.06;69.36
17821;BME280;9035;42.554;23.188;2022-10-16T00:58:43;90548.63;;;9.11;69.08
17821;BME280;9035;42.554;23.188;2022-10-16T01:01:09;90559.34;;;9.18;68.63
17821;BME280;9035;42.554;23.188;2022-10-16T01:03:37;90550.31;;;9.07;68.53
17821;BME280;9035;42.554;23.188;2022-10-16T01:06:20;90562.59;;;9.02;69.19
17821;BME280;9035;42.554;23.188;2022-10-16T01:08:57;90564.94;;;9.12;69.27
17821;BME280;9035;42.554;23.188;2022-10-16T01:11:31;90564.94;;;9.12;69.00
17821;BME280;9035;42.554;23.188;2022-10-16T01:14:06;90569.22;;;9.16;69.02
17821;BME280;9035;42.554;23.188;2022-10-16T01:16:42;90564.03;;;9.16;68.95
17821;BME280;9035;42.554;23.188;2022-10-16T01:19:14;90558.38;;;9.14;69.12
17821;BME280;9035;42.554;23.188;2022-10-16T01:21:46;90560.97;;;9.14;69.25
17821;BME280;9035;42.554;23.188;2022-10-16T01:24:20;90563.09;;;9.12;69.40
17821;BME280;9035;42.554;23.188;2022-10-16T01:27:21;90562.25;;;9.25;68.74
17821;BME280;9035;42.554;23.188;2022-10-16T01:29:53;90562.72;;;9.27;68.63
17821;BME280;9035;42.554;23.188;2022-10-16T01:32:25;90555.72;;;9.28;68.76
17821;BME280;9035;42.554;23.188;2022-10-16T01:34:59;90546.59;;;9.30;68.57
17821;BME280;9035;42.554;23.188;2022-10-16T01:37:38;90551.63;;;9.35;68.63
17821;BME280;9035;42.554;23.188;2022-10-16T01:40:10;90552.69;;;9.34;68.22
17821;BME280;9035;42.554;23.188;2022-10-16T01:42:42;90556.00;;;9.26;69.03
17821;BME280;9035;42.554;23.188;2022-10-16T01:45:13;90565.31;;;9.27;68.67
17821;BME280;9035;42.554;23.188;2022-10-16T01:47:43;90563.31;;;9.24;69.34
17821;BME280;9035;42.554;23.188;2022-10-16T01:50:12;90549.00;;;9.27;68.67
17821;BME280;9035;42.554;23.188;2022-10-16T01:52:44;90566.38;;;9.35;68.59
17821;BME280;9035;42.554;23.188;2022-10-16T01:55:16;90572.03;;;9.45;67.70
17821;BME280;9035;42.554;23.188;2022-10-16T01:57:47;90582.38;;;9.37;68.49
17821;BME280;9035;42.554;23.188;2022-10-16T02:00:17;90579.81;;;9.45;67.97
17821;BME280;9035;42.554;23.188;2022-10-16T02:02:48;90580.13;;;9.44;68.37
17821;BME280;9035;42.554;23.188;2022-10-16T02:05:21;90561.69;;;9.45;67.93
17821;BME280;9035;42.554;23.188;2022-10-16T02:07:50;90590.53;;;9.60;67.86
17821;BME280;9035;42.554;23.188;2022-10-16T02:10:17;90585.81;;;9.62;67.04
17821;BME280;9035;42.554;23.188;2022-10-16T02:12:49;90593.22;;;9.47;67.88
17821;BME280;9035;42.554;23.188;2022-10-16T02:15:17;90597.31;;;9.40;67.74
17821;BME280;9035;42.554;23.188;2022-10-16T02:17:43;90597.25;;;9.31;67.58
17821;BME280;9035;42.554;23.188;2022-10-16T02:20:10;90602.03;;;9.38;67.11
17821;BME280;9035;42.554;23.188;2022-10-16T02:22:40;90603.81;;;9.37;67.11
17821;BME280;9035;42.554;23.188;2022-10-16T02:25:11;90600.28;;;9.25;67.81
17821;BME280;9035;42.554;23.188;2022-10-16T02:27:56;90600.75;;;9.27;67.68
17821;BME280;9035;42.554;23.188;2022-10-16T02:30:28;90598.75;;;9.24;68.06
17821;BME280;9035;42.554;23.188;2022-10-16T02:32:56;90587.22;;;8.99;67.84
17821;BME280;9035;42.554;23.188;2022-10-16T02:35:25;90595.97;;;9.12;68.21
17821;BME280;9035;42.554;23.188;2022-10-16T02:37:54;90600.91;;;9.00;68.64
17821;BME280;9035;42.554;23.188;2022-10-16T02:40:23;90601.44;;;9.10;68.25
17821;BME280;9035;42.554;23.188;2022-10-16T02:42:51;90601.28;;;9.07;68.75
17821;BME280;9035;42.554;23.188;2022-10-16T02:45:20;90602.03;;;9.07;68.40
17821;BME280;9035;42.554;23.188;2022-10-16T02:47:47;90607.19;;;9.07;68.73
17821;BME280;9035;42.554;23.188;2022-10-16T02:50:15;90597.44;;;9.04;68.64
17821;BME280;9035;42.554;23.188;2022-10-16T02:52:42;90600.63;;;9.01;68.92
17821;BME280;9035;42.554;23.188;2022-10-16T02:55:09;90612.13;;;9.17;68.20
17821;BME280;9035;42.554;23.188;2022-10-16T02:57:35;90609.06;;;9.15;67.61
17821;BME280;9035;42.554;23.188;2022-10-16T03:00:06;90613.19;;;9.16;67.43
17821;BME280;9035;42.554;23.188;2022-10-16T03:02:35;90607.22;;;9.16;67.42
17821;BME280;9035;42.554;23.188;2022-10-16T03:05:01;90604.78;;;9.11;67.29
17821;BME280;9035;42.554;23.188;2022-10-16T03:07:28;90607.19;;;9.07;67.23
17821;BME280;9035;42.554;23.188;2022-10-16T03:09:55;90610.53;;;9.08;67.41
17821;BME280;9035;42.554;23.188;2022-10-16T03:12:22;90606.88;;;9.09;67.46
17821;BME280;9035;42.554;23.188;2022-10-16T03:14:48;90602.03;;;9.07;67.05
17821;BME280;9035;42.554;23.188;2022-10-16T03:17:15;90610.81;;;8.98;67.50
17821;BME280;9035;42.554;23.188;2022-10-16T03:19:44;90599.81;;;8.92;67.73
17821;BME280;9035;42.554;23.188;2022-10-16T03:22:11;90600.41;;;8.89;67.74
17821;BME280;9035;42.554;23.188;2022-10-16T03:24:38;90608.78;;;8.95;67.42
17821;BME280;9035;42.554;23.188;2022-10-16T03:27:04;90601.94;;;8.90;67.77
17821;BME280;9035;42.554;23.188;2022-10-16T03:29:31;90600.41;;;8.89;67.83
17821;BME280;9035;42.554;23.188;2022-10-16T03:31:58;90603.22;;;8.79;68.37
17821;BME280;9035;42.554;23.188;2022-10-16T03:34:25;90605.81;;;8.79;68.13
17821;BME280;9035;42.554;23.188;2022-10-16T03:36:54;90604.16;;;8.83;67.82
17821;BME280;9035;42.554;23.188;2022-10-16T03:39:21;90609.09;;;8.93;67.50
17821;BME280;9035;42.554;23.188;2022-10-16T03:41:48;90608.16;;;8.89;67.43
17821;BME280;9035;42.554;23.188;2022-10-16T03:44:15;90609.66;;;8.82;68.00
17821;BME280;9035;42.554;23.188;2022-10-16T03:46:41;90603.34;;;8.75;68.21
17821;BME280;9035;42.554;23.188;2022-10-16T03:49:08;90605.75;;;8.71;68.86
17821;BME280;9035;42.554;23.188;2022-10-16T03:51:35;90612.72;;;8.71;68.81
17821;BME280;9035;42.554;23.188;2022-10-16T03:54:03;90605.16;;;8.74;68.75
17821;BME280;9035;42.554;23.188;2022-10-16T03:56:30;90603.34;;;8.75;68.69
17821;BME280;9035;42.554;23.188;2022-10-16T03:58:56;90601.59;;;8.62;68.50
17821;BME280;9035;42.554;23.188;2022-10-16T04:01:23;90611.03;;;8.44;69.13
17821;BME280;9035;42.554;23.188;2022-10-16T04:03:50;90584.19;;;8.32;69.08
17821;BME280;9035;42.554;23.188;2022-10-16T04:06:16;90610.09;;;8.40;69.27
17821;BME280;9035;42.554;23.188;2022-10-16T04:08:43;90612.91;;;8.30;69.62
17821;BME280;9035;42.554;23.188;2022-10-16T04:11:12;90605.34;;;8.34;69.83
17821;BME280;9035;42.554;23.188;2022-10-16T04:13:39;90598.94;;;8.31;69.83
17821;BME280;9035;42.554;23.188;2022-10-16T04:16:07;90595.66;;;8.39;69.46
17821;BME280;9035;42.554;23.188;2022-10-16T04:18:33;90594.13;;;8.38;69.66
17821;BME280;9035;42.554;23.188;2022-10-16T04:21:03;90563.00;;;8.21;69.50
17821;BME280;9035;42.554;23.188;2022-10-16T04:23:30;90596.41;;;8.40;69.45
17821;BME280;9035;42.554;23.188;2022-10-16T04:25:57;90598.59;;;8.46;68.88
17821;BME280;9035;42.554;23.188;2022-10-16T04:28:26;90597.75;;;8.37;69.55
17821;BME280;9035;42.554;23.188;2022-10-16T04:30:53;90596.56;;;8.21;70.18
17821;BME280;9035;42.554;23.188;2022-10-16T04:33:19;90607.34;;;8.37;69.73
17821;BME280;9035;42.554;23.188;2022-10-16T04:35:46;90602.44;;;8.35;70.23
17821;BME280;9035;42.554;23.188;2022-10-16T04:38:14;90601.00;;;8.43;69.84
17821;BME280;9035;42.554;23.188;2022-10-16T04:40:41;90600.81;;;8.39;69.91
17821;BME280;9035;42.554;23.188;2022-10-16T04:43:08;90608.09;;;8.37;69.88
17821;BME280;9035;42.554;23.188;2022-10-16T04:45:37;90601.28;;;8.41;69.38
17821;BME280;9035;42.554;23.188;2022-10-16T04:48:04;90602.63;;;8.39;69.99
17821;BME280;9035;42.554;23.188;2022-10-16T04:50:30;90609.69;;;8.47;69.56
17821;BME280;9035;42.554;23.188;2022-10-16T04:52:57;90615.72;;;8.42;69.97
17821;BME280;9035;42.554;23.188;2022-10-16T04:55:24;90617.19;;;8.35;69.86
17821;BME280;9035;42.554;23.188;2022-10-16T04:57:51;90626.22;;;8.46;70.46
17821;BME280;9035;42.554;23.188;2022-10-16T05:00:17;90608.31;;;8.27;70.03
17821;BME280;9035;42.554;23.188;2022-10-16T05:02:46;90628.47;;;8.39;70.38
17821;BME280;9035;42.554;23.188;2022-10-16T05:05:13;90639.44;;;8.22;70.87
17821;BME280;9035;42.554;23.188;2022-10-16T05:07:39;90641.78;;;8.32;70.96
17821;BME280;9035;42.554;23.188;2022-10-16T05:10:07;90639.66;;;8.34;70.87
17821;BME280;9035;42.554;23.188;2022-10-16T05:12:33;90635.84;;;8.32;71.30
17821;BME280;9035;42.554;23.188;2022-10-16T05:15:00;90643.22;;;8.38;70.63
17821;BME280;9035;42.554;23.188;2022-10-16T05:17:27;90643.69;;;8.40;70.76
17821;BME280;9035;42.554;23.188;2022-10-16T05:19:55;90643.88;;;8.44;70.10
17821;BME280;9035;42.554;23.188;2022-10-16T05:22:22;90637.69;;;8.53;69.19
17821;BME280;9035;42.554;23.188;2022-10-16T05:24:49;90638.19;;;8.55;69.17
17821;BME280;9035;42.554;23.188;2022-10-16T05:27:15;90612.97;;;8.39;69.60
17821;BME280;9035;42.554;23.188;2022-10-16T05:29:45;90639.88;;;8.60;69.34
17821;BME280;9035;42.554;23.188;2022-10-16T05:32:12;90644.63;;;8.66;68.47
17821;BME280;9035;42.554;23.188;2022-10-16T05:34:39;90641.78;;;8.68;68.28
17821;BME280;9035;42.554;23.188;2022-10-16T05:37:08;90639.84;;;8.73;68.07
17821;BME280;9035;42.554;23.188;2022-10-16T05:39:35;90653.09;;;8.80;67.73
17821;BME280;9035;42.554;23.188;2022-10-16T05:42:02;90645.78;;;8.38;69.57
17821;BME280;9035;42.554;23.188;2022-10-16T05:44:29;90640.22;;;8.45;69.91
17821;BME280;9035;42.554;23.188;2022-10-16T05:46:56;90655.13;;;8.48;70.07
17821;BME280;9035;42.554;23.188;2022-10-16T05:49:23;90658.53;;;8.57;69.92
17821;BME280;9035;42.554;23.188;2022-10-16T05:51:49;90662.78;;;8.53;70.47
17821;BME280;9035;42.554;23.188;2022-10-16T05:54:18;90658.06;;;8.55;71.33
17821;BME280;9035;42.554;23.188;2022-10-16T05:56:45;90661.09;;;8.70;71.05
17821;BME280;9035;42.554;23.188;2022-10-16T05:59:11;90674.19;;;8.74;70.93
17821;BME280;9035;42.554;23.188;2022-10-16T06:01:38;90674.53;;;8.80;71.19
17821;BME280;9035;42.554;23.188;2022-10-16T06:04:05;90670.09;;;8.94;71.20
17821;BME280;9035;42.554;23.188;2022-10-16T06:06:32;90673.03;;;9.01;71.15
17821;BME280;9035;42.554;23.188;2022-10-16T06:08:58;90677.75;;;9.08;71.02
17821;BME280;9035;42.554;23.188;2022-10-16T06:11:28;90684.81;;;9.16;71.17
17821;BME280;9035;42.554;23.188;2022-10-16T06:13:57;90684.41;;;9.22;71.05
17821;BME280;9035;42.554;23.188;2022-10-16T06:16:24;90677.31;;;9.36;71.75
17821;BME280;9035;42.554;23.188;2022-10-16T06:18:53;90680.72;;;9.45;71.22
17821;BME280;9035;42.554;23.188;2022-10-16T06:21:22;90677.41;;;9.53;71.52
17821;BME280;9035;42.554;23.188;2022-10-16T06:23:50;90673.03;;;9.62;70.61
17821;BME280;9035;42.554;23.188;2022-10-16T06:26:19;90693.34;;;9.77;70.74
17821;BME280;9035;42.554;23.188;2022-10-16T06:28:48;90689.75;;;9.86;71.03
17821;BME280;9035;42.554;23.188;2022-10-16T06:31:16;90695.25;;;9.93;71.03
17821;BME280;9035;42.554;23.188;2022-10-16T06:33:43;90696.63;;;9.91;71.19
17821;BME280;9035;42.554;23.188;2022-10-16T06:36:12;90697.75;;;9.98;71.24
17821;BME280;9035;42.554;23.188;2022-10-16T06:38:40;90701.28;;;10.11;71.41
17821;BME280;9035;42.554;23.188;2022-10-16T06:41:09;90701.00;;;10.12;71.02
17821;BME280;9035;42.554;23.188;2022-10-16T06:43:36;90705.75;;;10.27;70.77
17821;BME280;9035;42.554;23.188;2022-10-16T06:46:06;90708.03;;;10.29;69.87
17821;BME280;9035;42.554;23.188;2022-10-16T06:48:34;90709.34;;;10.56;68.87
17821;BME280;9035;42.554;23.188;2022-10-16T06:51:03;90716.66;;;10.63;68.73
17821;BME280;9035;42.554;23.188;2022-10-16T06:53:32;90714.53;;;10.56;66.81
17821;BME280;9035;42.554;23.188;2022-10-16T06:56:07;90707.66;;;10.52;66.99
17821;BME280;9035;42.554;23.188;2022-10-16T06:58:34;90728.56;;;10.64;66.22
17821;BME280;9035;42.554;23.188;2022-10-16T07:01:01;90729.03;;;10.74;66.22
17821;BME280;9035;42.554;23.188;2022-10-16T07:03:29;90727.50;;;10.73;66.85
17821;BME280;9035;42.554;23.188;2022-10-16T07:05:56;90723.09;;;10.82;66.50
17821;BME280;9035;42.554;23.188;2022-10-16T07:08:23;90724.47;;;11.05;65.96
17821;BME280;9035;42.554;23.188;2022-10-16T07:10:58;90732.72;;;11.07;66.06
17821;BME280;9035;42.554;23.188;2022-10-16T07:13:26;90733.94;;;11.01;67.16
17821;BME280;9035;42.554;23.188;2022-10-16T07:15:52;90737.28;;;11.10;67.29
17821;BME280;9035;42.554;23.188;2022-10-16T07:18:19;90743.72;;;11.21;66.80
17821;BME280;9035;42.554;23.188;2022-10-16T07:20:48;90741.56;;;11.31;66.31
17821;BME280;9035;42.554;23.188;2022-10-16T07:23:15;90743.72;;;11.38;66.86
17821;BME280;9035;42.554;23.188;2022-10-16T07:25:42;90750.72;;;11.37;67.32
17821;BME280;9035;42.554;23.188;2022-10-16T07:28:08;90749.50;;;11.35;67.57
17821;BME280;9035;42.554;23.188;2022-10-16T07:30:35;90745.38;;;11.34;67.77
17821;BME280;9035;42.554;23.188;2022-10-16T07:33:03;90746.91;;;11.35;67.79
17821;BME280;9035;42.554;23.188;2022-10-16T07:35:30;90748.88;;;11.46;67.96
17821;BME280;9035;42.554;23.188;2022-10-16T07:37:58;90748.88;;;11.46;67.96
17821;BME280;9035;42.554;23.188;2022-10-16T07:40:25;90756.38;;;11.73;67.75
17821;BME280;9035;42.554;23.188;2022-10-16T07:42:52;90749.13;;;11.87;66.88
17821;BME280;9035;42.554;23.188;2022-10-16T07:45:19;90752.38;;;11.84;67.66
17821;BME280;9035;42.554;23.188;2022-10-16T07:47:46;90758.19;;;11.81;68.60
17821;BME280;9035;42.554;23.188;2022-10-16T07:50:13;90763.66;;;11.97;67.56
17821;BME280;9035;42.554;23.188;2022-10-16T07:52:39;90772.34;;;12.09;68.12
17821;BME280;9035;42.554;23.188;2022-10-16T07:55:08;90767.13;;;12.09;68.40
17821;BME280;9035;42.554;23.188;2022-10-16T07:57:35;90766.81;;;12.10;66.95
17821;BME280;9035;42.554;23.188;2022-10-16T08:00:02;90776.63;;;12.05;67.52
17821;BME280;9035;42.554;23.188;2022-10-16T08:02:29;90775.25;;;11.99;67.48
17821;BME280;9035;42.554;23.188;2022-10-16T08:04:57;90776.09;;;12.20;65.02
17821;BME280;9035;42.554;23.188;2022-10-16T08:07:24;90770.34;;;12.14;66.00
17821;BME280;9035;42.554;23.188;2022-10-16T08:09:51;90767.22;;;12.29;66.08
17821;BME280;9035;42.554;23.188;2022-10-16T08:12:19;90768.16;;;12.25;66.73
17821;BME280;9035;42.554;23.188;2022-10-16T08:14:46;90769.38;;;12.56;65.71
17821;BME280;9035;42.554;23.188;2022-10-16T08:17:14;90766.94;;;12.60;65.91
17821;BME280;9035;42.554;23.188;2022-10-16T08:19:44;90764.75;;;12.70;65.89
17821;BME280;9035;42.554;23.188;2022-10-16T08:22:11;90767.56;;;12.57;66.95
17821;BME280;9035;42.554;23.188;2022-10-16T08:24:38;90769.00;;;13.03;64.76
17821;BME280;9035;42.554;23.188;2022-10-16T08:27:04;90770.94;;;12.86;65.50
17821;BME280;9035;42.554;23.188;2022-10-16T08:29:33;90776.00;;;12.82;63.58
17821;BME280;9035;42.554;23.188;2022-10-16T08:32:00;90769.03;;;13.24;63.25
17821;BME280;9035;42.554;23.188;2022-10-16T08:34:27;90764.88;;;13.23;65.03
17821;BME280;9035;42.554;23.188;2022-10-16T08:36:54;90772.41;;;13.45;62.58
17821;BME280;9035;42.554;23.188;2022-10-16T08:39:21;90771.56;;;13.73;63.24
17821;BME280;9035;42.554;23.188;2022-10-16T08:42:08;90774.34;;;13.68;63.60
17821;BME280;9035;42.554;23.188;2022-10-16T08:44:53;90772.66;;;13.84;62.76
17821;BME280;9035;42.554;23.188;2022-10-16T08:47:28;90774.13;;;14.05;62.45
17821;BME280;9035;42.554;23.188;2022-10-16T08:50:07;90779.56;;;14.00;63.42
17821;BME280;9035;42.554;23.188;2022-10-16T08:52:39;90776.56;;;14.10;63.15
17821;BME280;9035;42.554;23.188;2022-10-16T08:55:17;90783.59;;;13.98;61.92
17821;BME280;9035;42.554;23.188;2022-10-16T08:57:46;90781.50;;;13.91;63.55
17821;BME280;9035;42.554;23.188;2022-10-16T09:00:15;90781.63;;;13.95;63.41
17821;BME280;9035;42.554;23.188;2022-10-16T09:02:49;90728.97;;;13.69;63.67
17821;BME280;9035;42.554;23.188;2022-10-16T09:05:37;90789.19;;;14.20;63.66
17821;BME280;9035;42.554;23.188;2022-10-16T09:08:10;90791.88;;;14.56;61.28
17821;BME280;9035;42.554;23.188;2022-10-16T09:10:49;90796.78;;;14.57;60.24
17821;BME280;9035;42.554;23.188;2022-10-16T09:13:23;90794.59;;;14.59;60.82
17821;BME280;9035;42.554;23.188;2022-10-16T09:16:00;90798.09;;;14.75;60.01
17821;BME280;9035;42.554;23.188;2022-10-16T09:18:35;90794.06;;;14.78;59.36
17821;BME280;9035;42.554;23.188;2022-10-16T09:21:10;90795.63;;;14.91;60.01
17821;BME280;9035;42.554;23.188;2022-10-16T09:23:40;90791.50;;;15.02;59.78
17821;BME280;9035;42.554;23.188;2022-10-16T09:26:11;90781.91;;;15.18;59.27
17821;BME280;9035;42.554;23.188;2022-10-16T09:28:38;90782.34;;;15.31;58.79
17821;BME280;9035;42.554;23.188;2022-10-16T09:31:13;90786.66;;;15.39;57.42
17821;BME280;9035;42.554;23.188;2022-10-16T09:33:40;90795.41;;;15.31;58.43
17821;BME280;9035;42.554;23.188;2022-10-16T09:36:09;90797.63;;;15.57;57.22
17821;BME280;9035;42.554;23.188;2022-10-16T09:38:37;90791.69;;;15.72;57.88
17821;BME280;9035;42.554;23.188;2022-10-16T09:41:14;90793.00;;;15.78;57.23
17821;BME280;9035;42.554;23.188;2022-10-16T09:43:47;90810.25;;;15.94;55.86
17821;BME280;9035;42.554;23.188;2022-10-16T09:46:25;90806.34;;;16.00;54.45
17821;BME280;9035;42.554;23.188;2022-10-16T09:48:54;90797.06;;;16.03;54.12
17821;BME280;9035;42.554;23.188;2022-10-16T09:51:24;90795.38;;;16.10;54.64
17821;BME280;9035;42.554;23.188;2022-10-16T09:53:55;90792.91;;;16.02;54.65
17821;BME280;9035;42.554;23.188;2022-10-16T09:56:24;90784.38;;;16.04;55.25
17821;BME280;9035;42.554;23.188;2022-10-16T09:58:52;90789.97;;;16.03;53.58
17821;BME280;9035;42.554;23.188;2022-10-16T10:01:20;90788.59;;;15.94;53.47
17821;BME280;9035;42.554;23.188;2022-10-16T10:03:49;90791.22;;;16.09;53.06
17821;BME280;9035;42.554;23.188;2022-10-16T10:06:22;90783.44;;;16.24;54.22
17821;BME280;9035;42.554;23.188;2022-10-16T10:08:58;90790.25;;;16.41;53.17
17821;BME280;9035;42.554;23.188;2022-10-16T10:11:43;90793.41;;;16.77;52.08
17821;BME280;9035;42.554;23.188;2022-10-16T10:14:17;90793.38;;;16.92;51.60
17821;BME280;9035;42.554;23.188;2022-10-16T10:16:45;90795.06;;;17.00;51.26
17821;BME280;9035;42.554;23.188;2022-10-16T10:19:16;90785.88;;;16.91;51.46
17821;BME280;9035;42.554;23.188;2022-10-16T10:21:43;90784.25;;;17.17;50.96
17821;BME280;9035;42.554;23.188;2022-10-16T10:24:11;90787.84;;;16.94;50.36
17821;BME280;9035;42.554;23.188;2022-10-16T10:26:44;90781.72;;;16.90;50.56
17821;BME280;9035;42.554;23.188;2022-10-16T10:29:20;90781.38;;;16.91;50.91
17821;BME280;9035;42.554;23.188;2022-10-16T10:31:58;90779.44;;;17.35;50.46
17821;BME280;9035;42.554;23.188;2022-10-16T10:34:52;90784.06;;;17.41;48.39
17821;BME280;9035;42.554;23.188;2022-10-16T10:37:33;90780.31;;;17.58;47.64
17821;BME280;9035;42.554;23.188;2022-10-16T10:40:08;90776.75;;;17.84;46.88
17821;BME280;9035;42.554;23.188;2022-10-16T10:42:44;90767.56;;;18.13;46.38
17821;BME280;9035;42.554;23.188;2022-10-16T10:45:23;90767.00;;;18.23;46.29
17821;BME280;9035;42.554;23.188;2022-10-16T10:48:12;90756.63;;;18.11;45.96
17821;BME280;9035;42.554;23.188;2022-10-16T10:50:45;90751.41;;;18.52;45.65
17821;BME280;9035;42.554;23.188;2022-10-16T10:53:27;90749.72;;;18.85;44.78
17821;BME280;9035;42.554;23.188;2022-10-16T10:56:10;90755.44;;;19.13;45.00
17821;BME280;9035;42.554;23.188;2022-10-16T10:59:16;90745.47;;;19.51;43.97
17821;BME280;9035;42.554;23.188;2022-10-16T11:01:51;90749.50;;;19.71;42.45
17821;BME280;9035;42.554;23.188;2022-10-16T11:04:49;90740.06;;;19.67;43.23
17821;BME280;9035;42.554;23.188;2022-10-16T11:07:24;90745.47;;;19.81;42.15
17821;BME280;9035;42.554;23.188;2022-10-16T11:09:57;90739.28;;;19.66;41.83
17821;BME280;9035;42.554;23.188;2022-10-16T11:12:26;90739.47;;;19.51;41.99
17821;BME280;9035;42.554;23.188;2022-10-16T11:15:00;90739.38;;;19.44;41.71
17821;BME280;9035;42.554;23.188;2022-10-16T11:17:31;90746.44;;;19.95;40.82
17821;BME280;9035;42.554;23.188;2022-10-16T11:20:05;90733.94;;;20.58;40.29
17821;BME280;9035;42.554;23.188;2022-10-16T11:22:44;90729.56;;;21.12;39.32
17821;BME280;9035;42.554;23.188;2022-10-16T11:25:16;90726.69;;;21.95;38.24
17821;BME280;9035;42.554;23.188;2022-10-16T11:27:48;90729.19;;;22.69;36.29
17821;BME280;9035;42.554;23.188;2022-10-16T11:30:20;90721.31;;;23.49;35.89
17821;BME280;9035;42.554;23.188;2022-10-16T11:32:55;90728.44;;;24.80;34.09
17821;BME280;9035;42.554;23.188;2022-10-16T11:35:25;90729.72;;;25.66;31.93
17821;BME280;9035;42.554;23.188;2022-10-16T11:37:57;90723.44;;;25.46;31.37
17821;BME280;9035;42.554;23.188;2022-10-16T11:40:28;90722.78;;;26.79;29.73
17821;BME280;9035;42.554;23.188;2022-10-16T11:42:58;90724.94;;;27.86;29.28
17821;BME280;9035;42.554;23.188;2022-10-16T11:45:32;90722.28;;;28.28;28.51
17821;BME280;9035;42.554;23.188;2022-10-16T11:48:07;90730.88;;;29.29;27.73
17821;BME280;9035;42.554;23.188;2022-10-16T11:50:43;90721.03;;;30.06;26.76
17821;BME280;9035;42.554;23.188;2022-10-16T11:53:23;90718.97;;;30.25;24.88
17821;BME280;9035;42.554;23.188;2022-10-16T11:55:55;90728.41;;;30.02;25.56
17821;BME280;9035;42.554;23.188;2022-10-16T11:58:25;90719.94;;;30.03;25.41
17821;BME280;9035;42.554;23.188;2022-10-16T12:01:00;90727.25;;;30.31;24.56
17821;BME280;9035;42.554;23.188;2022-10-16T12:03:35;90726.69;;;30.52;24.60
17821;BME280;9035;42.554;23.188;2022-10-16T12:06:22;90727.97;;;29.71;25.31
17821;BME280;9035;42.554;23.188;2022-10-16T12:08:53;90723.72;;;30.62;25.94
17821;BME280;9035;42.554;23.188;2022-10-16T12:11:34;90714.50;;;31.04;24.66
17821;BME280;9035;42.554;23.188;2022-10-16T12:14:35;90720.72;;;30.04;25.30
17821;BME280;9035;42.554;23.188;2022-10-16T12:17:20;90729.72;;;30.38;24.41
17821;BME280;9035;42.554;23.188;2022-10-16T12:19:57;90732.72;;;29.80;25.49
17821;BME280;9035;42.554;23.188;2022-10-16T12:22:27;90726.00;;;29.75;24.23
17821;BME280;9035;42.554;23.188;2022-10-16T12:24:56;90729.16;;;29.70;24.57
17821;BME280;9035;42.554;23.188;2022-10-16T12:27:28;90721.66;;;30.95;23.82
17821;BME280;9035;42.554;23.188;2022-10-16T12:29:57;90725.00;;;31.23;23.21
17821;BME280;9035;42.554;23.188;2022-10-16T12:32:30;90725.81;;;30.83;23.35
17821;BME280;9035;42.554;23.188;2022-10-16T12:34:58;90716.56;;;31.12;23.24
17821;BME280;9035;42.554;23.188;2022-10-16T12:37:28;90723.34;;;31.54;22.41
17821;BME280;9035;42.554;23.188;2022-10-16T12:39:58;90717.84;;;31.70;22.88
17821;BME280;9035;42.554;23.188;2022-10-16T12:42:33;90717.41;;;31.72;22.62
17821;BME280;9035;42.554;23.188;2022-10-16T12:45:00;90718.69;;;31.67;23.07
17821;BME280;9035;42.554;23.188;2022-10-16T12:47:46;90725.03;;;32.19;22.23
17821;BME280;9035;42.554;23.188;2022-10-16T12:50:29;90724.16;;;31.26;22.36
17821;BME280;9035;42.554;23.188;2022-10-16T12:52:57;90721.41;;;30.89;22.37
17821;BME280;9035;42.554;23.188;2022-10-16T12:55:26;90728.47;;;30.14;23.73
17821;BME280;9035;42.554;23.188;2022-10-16T12:58:06;90727.03;;;30.10;23.70
17821;BME280;9035;42.554;23.188;2022-10-16T13:00:43;90727.81;;;29.78;23.90
17821;BME280;9035;42.554;23.188;2022-10-16T13:06:20;90745.72;;;29.97;23.10
17821;BME280;9035;42.554;23.188;2022-10-16T13:12:00;90734.75;;;30.36;23.51
17821;BME280;9035;42.554;23.188;2022-10-16T13:14:53;90735.75;;;30.83;22.36
17821;BME280;9035;42.554;23.188;2022-10-16T13:17:30;90737.00;;;30.37;22.92
17821;BME280;9035;42.554;23.188;2022-10-16T13:20:05;90740.25;;;30.45;22.46
17821;BME280;9035;42.554;23.188;2022-10-16T13:22:41;90731.66;;;30.66;23.05
17821;BME280;9035;42.554;23.188;2022-10-16T13:25:19;90742.75;;;30.08;23.44
17821;BME280;9035;42.554;23.188;2022-10-16T13:27:54;90744.63;;;29.63;23.69
17821;BME280;9035;42.554;23.188;2022-10-16T13:30:34;90741.78;;;29.54;22.89